createdAt,value
2022-08-09T00:04:15.350Z,48.00
2022-08-09T00:09:25.870Z,48.30
2022-08-09T00:14:37.820Z,48.50
2022-08-09T00:19:41.631Z,48.60
2022-08-09T00:24:51.001Z,48.80
2022-08-09T00:30:16.430Z,49.00
2022-08-09T00:35:18.280Z,49.20
2022-08-09T00:40:23.476Z,49.50
2022-08-09T00:45:35.879Z,49.50
2022-08-09T00:50:39.286Z,49.40
2022-08-09T00:56:04.862Z,49.70
2022-08-09T01:01:16.458Z,49.90
2022-08-09T01:06:53.545Z,50.20
2022-08-09T01:11:59.447Z,50.50
2022-08-09T01:17:16.653Z,50.70
2022-08-09T01:22:38.552Z,50.90
2022-08-09T01:27:44.926Z,51.10
2022-08-09T01:32:57.219Z,51.50
2022-08-09T01:38:08.442Z,51.80
2022-08-09T01:43:16.954Z,52.00
2022-08-09T01:48:24.202Z,52.20
2022-08-09T01:53:41.555Z,52.60
2022-08-09T01:58:49.143Z,53.00
2022-08-09T02:03:54.379Z,53.20
2022-08-09T02:08:59.739Z,53.50
2022-08-09T02:14:07.602Z,53.70
2022-08-09T02:19:11.418Z,54.10
2022-08-09T02:24:26.247Z,54.40
2022-08-09T02:29:37.921Z,54.90
2022-08-09T02:34:55.678Z,55.00
2022-08-09T02:40:04.756Z,55.70
2022-08-09T02:45:18.690Z,56.10
2022-08-09T02:50:26.819Z,56.40
2022-08-09T02:55:46.193Z,56.50
2022-08-09T03:00:57.836Z,56.80
2022-08-09T03:06:03.731Z,57.20
2022-08-09T03:11:10.367Z,57.40
2022-08-09T03:16:15.337Z,57.80
2022-08-09T03:21:20.435Z,58.20
2022-08-09T03:26:31.930Z,58.60
2022-08-09T03:31:42.486Z,59.10
2022-08-09T03:36:58.339Z,59.30
2022-08-09T03:42:06.845Z,59.60
2022-08-09T03:47:11.514Z,59.90
2022-08-09T03:52:17.441Z,61.00
2022-08-09T03:57:21.452Z,62.30
2022-08-09T04:02:28.580Z,62.90
2022-08-09T04:07:47.297Z,63.90
2022-08-09T04:12:55.766Z,64.80
2022-08-09T04:18:02.140Z,65.80
2022-08-09T04:23:10.037Z,66.70
2022-08-09T04:28:33.195Z,68.20
2022-08-09T04:33:47.204Z,69.90
2022-08-09T04:38:58.099Z,71.20
2022-08-09T04:44:07.120Z,71.20
2022-08-09T04:49:15.397Z,72.00
2022-08-09T04:54:18.737Z,72.50
2022-08-09T04:59:21.671Z,75.80
2022-08-09T05:04:30.636Z,76.60
2022-08-09T05:09:42.323Z,76.90
2022-08-09T05:14:52.518Z,79.80
2022-08-09T05:19:58.225Z,82.60
2022-08-09T05:25:02.549Z,85.10
2022-08-09T05:30:06.715Z,89.60
2022-08-09T05:35:12.276Z,91.90
2022-08-09T05:40:16.593Z,92.90
2022-08-09T05:45:21.378Z,93.90
2022-08-09T05:51:12.071Z,94.40
2022-08-09T05:56:16.239Z,95.60
2022-08-09T06:01:20.515Z,94.80
2022-08-09T06:06:26.542Z,93.90
2022-08-09T06:11:40.834Z,94.00
2022-08-09T06:16:52.707Z,94.30
2022-08-09T06:21:58.481Z,94.10
2022-08-09T06:27:01.901Z,94.30
2022-08-09T06:32:08.617Z,93.60
2022-08-09T06:37:29.532Z,93.20
2022-08-09T06:42:33.713Z,93.00
2022-08-09T06:47:48.717Z,92.40
2022-08-09T06:53:04.974Z,92.10
2022-08-09T06:58:08.036Z,91.90
2022-08-09T07:03:39.403Z,91.40
2022-08-09T07:08:56.734Z,90.80
2022-08-09T07:14:03.978Z,90.60
2022-08-09T07:19:07.809Z,90.30
2022-08-09T07:24:12.374Z,90.00
2022-08-09T07:29:15.937Z,89.30
2022-08-09T07:34:20.319Z,88.60
2022-08-09T07:39:40.870Z,87.90
2022-08-09T07:44:51.031Z,88.30
2022-08-09T07:50:07.886Z,88.00
2022-08-09T07:56:03.242Z,88.10
2022-08-09T08:01:06.291Z,88.00
2022-08-09T08:06:21.261Z,87.20
2022-08-09T08:12:11.351Z,86.50
2022-08-09T08:17:08.757Z,85.50
2022-08-09T08:22:15.214Z,85.10
2022-08-09T08:27:19.656Z,83.80
2022-08-09T08:32:31.127Z,83.20
2022-08-09T08:37:41.645Z,83.30
2022-08-09T08:43:03.534Z,82.60
2022-08-09T08:48:19.590Z,82.10
2022-08-09T08:53:23.518Z,81.70
2022-08-09T08:58:37.754Z,81.30
2022-08-09T09:03:43.702Z,80.60
2022-08-09T09:08:52.484Z,80.20
2022-08-09T09:13:59.679Z,79.80
2022-08-09T09:19:29.058Z,79.00
2022-08-09T09:24:31.374Z,78.60
2022-08-09T09:30:09.296Z,77.80
2022-08-09T09:35:09.069Z,77.80
2022-08-09T09:40:17.797Z,77.20
2022-08-09T09:45:26.895Z,76.10
2022-08-09T09:50:51.357Z,76.00
2022-08-09T09:56:05.490Z,75.70
2022-08-09T10:01:31.559Z,75.30
2022-08-09T10:06:51.981Z,75.00
2022-08-09T10:12:12.458Z,74.50
2022-08-09T10:17:55.180Z,74.10
2022-08-09T10:23:00.446Z,74.00
2022-08-09T10:28:08.859Z,73.20
2022-08-09T10:34:07.986Z,72.60
2022-08-09T10:38:55.882Z,72.00
2022-08-09T10:44:04.377Z,71.10
2022-08-09T10:49:21.655Z,70.90
2022-08-09T10:54:26.982Z,69.90
2022-08-09T10:59:55.512Z,69.20
2022-08-09T11:05:25.277Z,68.90
2022-08-09T11:11:08.859Z,68.80
2022-08-09T11:16:37.966Z,68.30
2022-08-09T11:22:05.239Z,67.70
2022-08-09T11:28:05.223Z,66.00
2022-08-09T11:33:04.814Z,64.90
2022-08-09T11:38:18.707Z,64.20
2022-08-09T11:43:40.426Z,63.70
2022-08-09T11:48:49.448Z,62.90
2022-08-09T11:54:28.263Z,62.30
2022-08-09T11:59:37.983Z,61.40
2022-08-09T12:04:41.484Z,60.20
2022-08-09T12:09:50.576Z,59.50
2022-08-09T12:15:08.097Z,59.00
2022-08-09T12:20:22.686Z,58.70
2022-08-09T12:25:37.121Z,58.30
2022-08-09T12:30:46.572Z,57.50
2022-08-09T12:36:03.638Z,57.20
2022-08-09T12:41:10.734Z,56.90
2022-08-09T12:46:23.910Z,57.40
2022-08-09T12:51:52.208Z,56.30
2022-08-09T12:56:54.430Z,55.80
2022-08-09T13:02:07.079Z,55.30
2022-08-09T13:07:16.278Z,55.00
2022-08-09T13:12:22.094Z,54.70
2022-08-09T13:18:03.911Z,54.40
2022-08-09T13:23:05.233Z,54.20
2022-08-09T13:28:24.651Z,53.90
2022-08-09T13:33:52.729Z,53.70
2022-08-09T13:39:00.016Z,53.50
2022-08-09T13:44:16.285Z,53.40
2022-08-09T13:49:20.167Z,53.00
2022-08-09T13:54:30.318Z,52.80
2022-08-09T13:59:42.042Z,52.60
2022-08-09T14:04:49.393Z,52.40
2022-08-09T14:10:03.168Z,52.20
2022-08-09T14:16:06.772Z,51.80
2022-08-09T14:20:33.469Z,51.50
2022-08-09T14:25:42.635Z,51.20
2022-08-09T14:30:50.000Z,51.20
2022-08-09T14:35:53.542Z,50.90
2022-08-09T14:41:01.899Z,50.90
2022-08-09T14:46:56.151Z,50.60
2022-08-09T14:51:58.394Z,50.60
2022-08-09T14:57:02.110Z,50.40
2022-08-09T15:02:10.160Z,50.10
2022-08-09T15:07:15.634Z,50.10
2022-08-09T15:12:20.241Z,49.80
2022-08-09T15:17:25.419Z,49.70
2022-08-09T15:22:33.213Z,49.60
2022-08-09T15:27:54.870Z,49.50
2022-08-09T15:33:01.904Z,49.50
2022-08-09T15:38:12.107Z,49.00
2022-08-09T15:43:17.582Z,48.80
2022-08-09T15:48:29.204Z,48.70
2022-08-09T15:54:05.099Z,49.00
2022-08-09T15:58:59.984Z,48.40
2022-08-09T16:04:04.894Z,48.20
2022-08-09T16:09:07.800Z,48.20
2022-08-09T16:14:10.757Z,48.00
2022-08-09T16:19:19.743Z,47.80
2022-08-09T16:24:32.741Z,47.60
2022-08-09T16:29:49.820Z,47.50
2022-08-09T16:35:03.095Z,47.40
2022-08-09T16:40:11.847Z,47.20
2022-08-09T16:45:19.705Z,46.90
2022-08-09T16:50:31.278Z,46.70
2022-08-09T16:55:58.593Z,46.60
2022-08-09T17:01:08.241Z,46.60
2022-08-09T17:06:31.561Z,46.40
2022-08-09T17:11:41.832Z,46.20
2022-08-09T17:16:45.348Z,45.90
2022-08-09T17:21:55.569Z,45.80
2022-08-09T17:26:58.841Z,45.80
2022-08-09T17:32:02.168Z,45.60
2022-08-09T17:37:19.546Z,45.40
2022-08-09T17:42:40.874Z,45.20
2022-08-09T17:48:02.763Z,45.20
2022-08-09T17:53:19.180Z,45.10
2022-08-09T17:58:53.745Z,45.00
2022-08-09T18:03:56.793Z,44.90
2022-08-09T18:09:13.172Z,44.60
2022-08-09T18:14:25.372Z,44.60
2022-08-09T18:20:57.443Z,44.50
2022-08-09T18:24:55.400Z,44.30
2022-08-09T18:30:41.927Z,44.20
2022-08-09T18:35:47.990Z,44.00
2022-08-09T18:40:49.693Z,44.00
2022-08-09T18:46:47.971Z,44.00
2022-08-09T18:51:55.391Z,43.70
2022-08-09T18:57:05.830Z,43.70
2022-08-09T19:02:15.608Z,43.60
2022-08-09T19:07:18.661Z,43.60
2022-08-09T19:12:23.401Z,43.60
2022-08-09T19:17:31.327Z,43.80
2022-08-09T19:22:34.817Z,43.70
2022-08-09T19:27:41.087Z,43.60
2022-08-09T19:32:46.285Z,43.50
2022-08-09T19:37:58.061Z,43.60
2022-08-09T19:43:57.925Z,43.50
2022-08-09T19:49:01.814Z,43.40
2022-08-09T19:54:11.710Z,43.30
2022-08-09T19:59:58.858Z,43.30
2022-08-09T20:04:52.934Z,43.50
2022-08-09T20:09:58.581Z,43.30
2022-08-09T20:16:35.458Z,43.20
2022-08-09T20:20:51.082Z,43.30
2022-08-09T20:25:54.820Z,43.20
2022-08-09T20:30:59.069Z,43.30
2022-08-09T20:36:02.116Z,43.30
2022-08-09T20:41:05.214Z,43.30
2022-08-09T20:46:42.064Z,43.50
2022-08-09T20:51:40.793Z,43.50
2022-08-09T20:56:49.808Z,43.60
2022-08-09T21:01:58.110Z,43.60
2022-08-09T21:07:12.619Z,43.60
2022-08-09T21:18:24.158Z,43.60
2022-08-09T21:22:54.243Z,43.70
2022-08-09T21:27:57.701Z,43.70
2022-08-09T21:33:01.918Z,43.60
2022-08-09T21:38:06.016Z,43.60
2022-08-09T21:43:09.550Z,43.60
2022-08-09T21:48:14.040Z,43.70
2022-08-09T21:53:40.081Z,43.90
2022-08-09T21:58:42.465Z,43.90
2022-08-09T22:03:59.647Z,43.90
2022-08-09T22:09:02.815Z,43.80
2022-08-09T22:14:06.090Z,43.90
2022-08-09T22:19:53.298Z,43.90
2022-08-09T22:26:04.167Z,43.90
2022-08-09T22:30:04.540Z,43.90
2022-08-09T22:36:01.624Z,43.90
2022-08-09T22:40:34.311Z,43.80
2022-08-09T22:48:14.551Z,44.00
2022-08-09T22:51:01.718Z,44.10
2022-08-09T22:56:30.676Z,44.20
2022-08-09T23:01:38.835Z,44.20
2022-08-09T23:07:00.921Z,44.20
2022-08-09T23:12:04.860Z,44.40
2022-08-09T23:17:07.729Z,44.40
2022-08-09T23:22:11.980Z,44.50
2022-08-09T23:27:14.898Z,44.70
2022-08-09T23:32:17.807Z,44.80
2022-08-09T23:37:25.460Z,44.90
2022-08-09T23:42:28.644Z,45.00
2022-08-09T23:47:31.528Z,45.00
2022-08-09T23:52:35.928Z,45.10
2022-08-09T23:57:41.609Z,45.20
